Time;durP1;ratioP1;P1;durP2;ratioP2;P2;SDS_P1;SDS_P2;PMS_P1;PMS_P2;Temp;Humidity;BMP_temperature;BMP_pressure;BME280_temperature;BME280_humidity;BME280_pressure;Samples;Min_cycle;Max_cycle;Signal;HPM_P1;HPM_P2
2022/09/27 00:03:42;;;;;;;4.32;0.88;;;;;;;;;;10484646;28;20123;-79
2022/09/27 00:08:45;;;;;;;3.20;1.15;;;;;;;;;;10503837;28;20048;-78
2022/09/27 00:13:49;;;;;;;4.90;1.13;;;;;;;;;;10504493;28;20071;-79
2022/09/27 00:18:54;;;;;;;3.45;0.88;;;;;;;;;;10479622;28;20051;-79
2022/09/27 00:23:57;;;;;;;3.63;1.20;;;;;;;;;;10514010;28;20147;-79
2022/09/27 00:29:01;;;;;;;3.78;1.00;;;;;;;;;;10478812;28;20099;-79
2022/09/27 00:34:07;;;;;;;3.13;1.10;;;;;;;;;;10470355;28;20036;-79
2022/09/27 00:39:13;;;;;;;2.78;0.80;;;;;;;;;;10478506;28;20138;-79
2022/09/27 00:44:59;;;;;;;3.05;1.05;;;;;;;;;;10484129;28;20044;-79
2022/09/27 00:50:09;;;;;;;2.95;1.10;;;;;;;;;;10480329;28;20073;-79
2022/09/27 00:55:16;;;;;;;2.65;1.00;;;;;;;;;;10479463;28;20446;-79
2022/09/27 01:00:21;;;;;;;5.18;1.17;;;;;;;;;;10474809;28;20067;-79
2022/09/27 01:05:28;;;;;;;5.03;1.40;;;;;;;;;;10483831;28;20089;-79
2022/09/27 01:10:37;;;;;;;2.88;1.10;;;;;;;;;;10495525;28;20133;-79
2022/09/27 01:15:47;;;;;;;2.47;1.00;;;;;;;;;;10494089;28;20534;-79
2022/09/27 01:21:16;;;;;;;2.58;0.93;;;;;;;;;;10482991;28;20122;-79
2022/09/27 01:26:35;;;;;;;2.25;0.88;;;;;;;;;;10492523;28;20040;-79
2022/09/27 01:31:48;;;;;;;3.63;1.10;;;;;;;;;;10498203;28;20052;-78
2022/09/27 01:36:57;;;;;;;1.67;0.60;;;;;;;;;;10513326;28;20044;-79
2022/09/27 01:42:05;;;;;;;2.83;0.88;;;;;;;;;;10514772;28;20039;-78
2022/09/27 01:47:19;;;;;;;1.38;0.52;;;;;;;;;;10483970;28;20071;-78
2022/09/27 01:52:38;;;;;;;2.28;0.70;;;;;;;;;;10512188;28;20381;-79
2022/09/27 01:57:46;;;;;;;0.45;0.45;;;;;;;;;;10489373;28;20040;-79
2022/09/27 02:03:03;;;;;;;1.40;0.52;;;;;;;;;;10497137;28;20044;-79
2022/09/27 02:08:19;;;;;;;0.47;0.30;;;;;;;;;;10492629;28;20093;-79
2022/09/27 02:13:27;;;;;;;0.65;0.30;;;;;;;;;;10495996;28;20040;-79
2022/09/27 02:18:51;;;;;;;1.88;0.30;;;;;;;;;;10466255;28;20044;-80
2022/09/27 02:23:58;;;;;;;0.20;0.20;;;;;;;;;;10494320;28;20051;-79
2022/09/27 02:29:09;;;;;;;0.50;0.43;;;;;;;;;;10498161;28;20077;-79
2022/09/27 02:34:23;;;;;;;1.20;0.45;;;;;;;;;;10465878;28;20036;-80
2022/09/27 02:39:28;;;;;;;0.82;0.40;;;;;;;;;;10484837;28;20043;-80
2022/09/27 02:44:39;;;;;;;0.32;0.28;;;;;;;;;;10483148;28;20071;-80
2022/09/27 02:49:55;;;;;;;0.60;0.20;;;;;;;;;;10497562;28;20075;-78
2022/09/27 02:55:23;;;;;;;0.60;0.20;;;;;;;;;;10497202;28;20040;-79
2022/09/27 03:00:48;;;;;;;0.40;0.30;;;;;;;;;;10499825;28;20135;-80
2022/09/27 03:06:16;;;;;;;0.80;0.40;;;;;;;;;;10495263;28;20038;-79
2022/09/27 03:11:19;;;;;;;0.40;0.30;;;;;;;;;;10476114;28;20070;-80
2022/09/27 03:16:23;;;;;;;1.10;0.30;;;;;;;;;;10484471;28;20040;-80
2022/09/27 03:21:38;;;;;;;0.20;0.20;;;;;;;;;;10515895;28;20539;-79
2022/09/27 03:26:41;;;;;;;0.20;0.20;;;;;;;;;;10457260;28;20043;-79
2022/09/27 03:31:45;;;;;;;0.43;0.22;;;;;;;;;;10503339;28;20045;-78
2022/09/27 03:37:16;;;;;;;1.00;0.30;;;;;;;;;;10462356;28;20052;-79
2022/09/27 03:42:22;;;;;;;0.50;0.20;;;;;;;;;;10472446;28;20043;-80
2022/09/27 03:47:29;;;;;;;1.08;0.30;;;;;;;;;;10462175;28;20033;-79
2022/09/27 03:52:33;;;;;;;0.35;0.30;;;;;;;;;;10461416;28;20037;-79
2022/09/27 03:57:37;;;;;;;3.00;0.43;;;;;;;;;;10469312;28;20040;-79
2022/09/27 04:02:42;;;;;;;0.77;0.40;;;;;;;;;;10491120;28;20459;-78
2022/09/27 04:08:13;;;;;;;1.08;0.40;;;;;;;;;;10498733;28;20052;-78
2022/09/27 04:13:17;;;;;;;0.20;0.20;;;;;;;;;;10508777;28;20108;-79
2022/09/27 04:18:28;;;;;;;0.50;0.30;;;;;;;;;;10468925;28;20036;-78
2022/09/27 04:23:51;;;;;;;0.45;0.30;;;;;;;;;;10489716;28;20053;-79
2022/09/27 04:28:58;;;;;;;0.30;0.30;;;;;;;;;;10467507;28;20531;-79
2022/09/27 04:34:01;;;;;;;2.58;0.75;;;;;;;;;;10493219;28;20093;-79
2022/09/27 04:39:10;;;;;;;1.70;0.70;;;;;;;;;;10488640;28;20040;-79
2022/09/27 04:44:17;;;;;;;0.60;0.40;;;;;;;;;;10496304;28;20408;-79
2022/09/27 04:49:24;;;;;;;2.88;0.70;;;;;;;;;;10482643;28;20044;-79
2022/09/27 04:54:29;;;;;;;0.82;0.30;;;;;;;;;;10497704;28;20067;-79
2022/09/27 04:59:45;;;;;;;0.35;0.32;;;;;;;;;;10479156;28;20048;-80
2022/09/27 05:04:49;;;;;;;0.30;0.30;;;;;;;;;;10469039;28;20067;-80
2022/09/27 05:09:56;;;;;;;0.50;0.35;;;;;;;;;;10493876;28;20048;-78
2022/09/27 05:15:01;;;;;;;1.23;0.47;;;;;;;;;;10469008;28;20040;-79
2022/09/27 05:20:24;;;;;;;1.20;0.40;;;;;;;;;;10514426;28;20052;-78
2022/09/27 05:25:49;;;;;;;0.98;0.50;;;;;;;;;;10510419;28;20047;-79
2022/09/27 05:30:52;;;;;;;1.05;0.57;;;;;;;;;;10499178;28;20101;-78
2022/09/27 05:35:58;;;;;;;1.20;0.40;;;;;;;;;;10507182;28;20129;-78
2022/09/27 05:41:06;;;;;;;0.75;0.40;;;;;;;;;;10481940;28;20051;-79
2022/09/27 05:46:10;;;;;;;0.30;0.30;;;;;;;;;;10484811;28;20176;-79
2022/09/27 05:51:18;;;;;;;2.05;0.32;;;;;;;;;;10462848;28;20040;-78
2022/09/27 05:56:23;;;;;;;0.47;0.22;;;;;;;;;;10491031;28;20047;-81
2022/09/27 06:01:53;;;;;;;0.35;0.20;;;;;;;;;;10498417;28;20062;-77
2022/09/27 06:07:15;;;;;;;0.43;0.35;;;;;;;;;;10512710;28;20040;-78
2022/09/27 06:12:21;;;;;;;2.10;0.85;;;;;;;;;;10517603;28;20109;-76
2022/09/27 06:17:24;;;;;;;1.00;0.50;;;;;;;;;;10488298;28;20511;-78
2022/09/27 06:22:28;;;;;;;2.63;1.45;;;;;;;;;;10492960;28;20056;-78
2022/09/27 06:27:37;;;;;;;2.15;1.60;;;;;;;;;;10497488;28;20048;-78
2022/09/27 06:33:02;;;;;;;0.65;0.65;;;;;;;;;;10523404;28;20036;-78
2022/09/27 06:38:10;;;;;;;1.45;0.60;;;;;;;;;;10483711;28;20124;-79
2022/09/27 06:43:21;;;;;;;1.05;0.40;;;;;;;;;;10480276;28;20556;-79
2022/09/27 06:48:43;;;;;;;0.73;0.30;;;;;;;;;;10461081;28;20044;-79
2022/09/27 06:53:54;;;;;;;1.23;0.38;;;;;;;;;;10451335;28;20075;-78
2022/09/27 07:04:25;;;;;;;0.80;0.40;;;;;;;;;;10482656;28;20041;-80
2022/09/27 07:09:52;;;;;;;0.70;0.50;;;;;;;;;;10472147;28;20056;-79
2022/09/27 07:14:57;;;;;;;0.90;0.38;;;;;;;;;;10472037;28;20135;-78
2022/09/27 07:20:01;;;;;;;2.28;0.30;;;;;;;;;;10444482;28;20127;-79
2022/09/27 07:25:06;;;;;;;1.35;0.60;;;;;;;;;;10464057;28;20143;-79
2022/09/27 07:30:13;;;;;;;1.88;0.52;;;;;;;;;;10488857;28;20097;-79
2022/09/27 07:35:16;;;;;;;2.10;0.38;;;;;;;;;;10450905;28;20037;-79
2022/09/27 07:40:20;;;;;;;1.30;0.50;;;;;;;;;;10463040;28;20374;-78
2022/09/27 07:45:26;;;;;;;1.08;0.50;;;;;;;;;;10472341;28;20094;-80
2022/09/27 07:50:46;;;;;;;1.10;0.50;;;;;;;;;;10438294;28;20056;-79
2022/09/27 07:56:14;;;;;;;0.73;0.50;;;;;;;;;;10456204;28;20048;-79
2022/09/27 08:01:19;;;;;;;2.50;0.50;;;;;;;;;;10450347;28;20567;-79
2022/09/27 08:06:31;;;;;;;1.00;0.50;;;;;;;;;;10460064;28;20404;-78
2022/09/27 08:11:36;;;;;;;2.20;0.40;;;;;;;;;;10459793;28;20065;-79
2022/09/27 08:16:41;;;;;;;0.60;0.50;;;;;;;;;;10435295;28;20045;-79
2022/09/27 08:22:02;;;;;;;2.50;0.50;;;;;;;;;;10464880;28;20064;-79
2022/09/27 08:27:17;;;;;;;0.68;0.30;;;;;;;;;;10448821;28;20055;-79
2022/09/27 08:32:24;;;;;;;1.02;0.40;;;;;;;;;;10477392;28;20428;-78
2022/09/27 08:37:28;;;;;;;0.65;0.40;;;;;;;;;;10498074;28;20070;-80
2022/09/27 08:42:42;;;;;;;2.45;1.10;;;;;;;;;;10507707;28;20080;-80
2022/09/27 08:47:52;;;;;;;1.70;0.90;;;;;;;;;;10508667;28;20036;-79
2022/09/27 08:52:59;;;;;;;0.40;0.40;;;;;;;;;;10483925;28;20498;-80
2022/09/27 08:58:14;;;;;;;0.38;0.30;;;;;;;;;;10519188;28;20051;-79
2022/09/27 09:03:22;;;;;;;0.75;0.43;;;;;;;;;;10498850;28;20064;-79
2022/09/27 09:08:33;;;;;;;0.52;0.50;;;;;;;;;;10464788;28;20131;-78
2022/09/27 09:13:53;;;;;;;1.42;0.30;;;;;;;;;;10477577;28;20044;-78
2022/09/27 09:19:09;;;;;;;2.15;0.60;;;;;;;;;;10472539;28;20118;-79
2022/09/27 09:24:30;;;;;;;0.63;0.30;;;;;;;;;;10493858;28;20503;-79
2022/09/27 09:30:08;;;;;;;1.13;0.60;;;;;;;;;;10507089;28;20068;-78
2022/09/27 09:35:20;;;;;;;1.10;0.30;;;;;;;;;;10505921;28;20454;-77
2022/09/27 09:40:28;;;;;;;0.55;0.35;;;;;;;;;;10507963;28;20036;-79
2022/09/27 09:45:36;;;;;;;1.30;0.40;;;;;;;;;;10494839;28;20127;-78
2022/09/27 09:50:46;;;;;;;1.05;0.50;;;;;;;;;;10482836;28;20045;-79
2022/09/27 09:55:56;;;;;;;1.75;0.43;;;;;;;;;;10506968;28;20458;-79
2022/09/27 10:01:11;;;;;;;1.17;0.50;;;;;;;;;;10488583;28;20120;-80
2022/09/27 10:06:17;;;;;;;0.90;0.40;;;;;;;;;;10479859;28;20051;-78
2022/09/27 10:11:24;;;;;;;1.05;0.40;;;;;;;;;;10507327;28;20599;-78
2022/09/27 10:16:49;;;;;;;2.00;0.60;;;;;;;;;;10519596;28;20123;-79
2022/09/27 10:21:56;;;;;;;0.85;0.50;;;;;;;;;;10490829;28;20135;-79
2022/09/27 10:27:01;;;;;;;1.83;0.57;;;;;;;;;;10502561;28;20053;-79
2022/09/27 10:32:21;;;;;;;2.60;0.40;;;;;;;;;;10486586;28;20087;-79
2022/09/27 10:37:28;;;;;;;0.95;0.50;;;;;;;;;;10476818;28;20108;-78
2022/09/27 10:42:38;;;;;;;0.90;0.45;;;;;;;;;;10465908;28;20052;-78
2022/09/27 10:47:45;;;;;;;1.10;0.50;;;;;;;;;;10480253;28;20152;-78
2022/09/27 10:53:05;;;;;;;2.97;0.70;;;;;;;;;;10451374;28;20049;-78
2022/09/27 10:58:19;;;;;;;1.02;0.50;;;;;;;;;;10466166;28;20040;-79
2022/09/27 11:03:24;;;;;;;0.43;0.30;;;;;;;;;;10467513;28;20037;-78
2022/09/27 11:08:34;;;;;;;0.80;0.45;;;;;;;;;;10464142;28;20094;-78
2022/09/27 11:13:59;;;;;;;1.02;0.60;;;;;;;;;;10424355;28;20140;-79
2022/09/27 11:19:16;;;;;;;0.82;0.50;;;;;;;;;;10463453;28;20037;-79
2022/09/27 11:24:26;;;;;;;;;;;;;;;;;;10477615;28;20040;-79
2022/09/27 11:29:39;;;;;;;1.30;0.50;;;;;;;;;;10479821;28;19925;-78
2022/09/27 11:35:12;;;;;;;1.45;0.57;;;;;;;;;;10467212;28;20045;-79
2022/09/27 11:40:30;;;;;;;0.45;0.35;;;;;;;;;;10445865;28;20032;-78
2022/09/27 11:45:45;;;;;;;1.05;0.40;;;;;;;;;;10457574;28;20055;-78
2022/09/27 11:51:30;;;;;;;3.35;0.82;;;;;;;;;;10459345;28;20033;-78
2022/09/27 11:56:42;;;;;;;0.47;0.40;;;;;;;;;;10475934;28;20424;-78
2022/09/27 12:01:54;;;;;;;1.02;0.47;;;;;;;;;;10454771;28;20045;-79
2022/09/27 12:07:04;;;;;;;0.60;0.50;;;;;;;;;;10490683;28;20456;-78
2022/09/27 12:12:16;;;;;;;2.72;0.63;;;;;;;;;;10481804;28;20049;-80
2022/09/27 12:17:23;;;;;;;1.77;0.80;;;;;;;;;;10487360;28;20041;-79
2022/09/27 12:22:32;;;;;;;1.02;0.47;;;;;;;;;;10476616;28;20041;-79
2022/09/27 12:27:55;;;;;;;0.40;0.35;;;;;;;;;;10463712;28;20056;-78
2022/09/27 12:33:07;;;;;;;0.77;0.50;;;;;;;;;;10451705;28;20045;-78
2022/09/27 12:38:14;;;;;;;0.50;0.40;;;;;;;;;;10466715;28;20454;-80
2022/09/27 12:43:23;;;;;;;0.25;0.25;;;;;;;;;;10484956;28;20082;-78
2022/09/27 12:48:41;;;;;;;0.50;0.50;;;;;;;;;;10507013;28;20136;-78
2022/09/27 12:54:01;;;;;;;0.75;0.57;;;;;;;;;;10466899;28;20060;-79
2022/09/27 12:59:23;;;;;;;0.45;0.45;;;;;;;;;;10441149;28;20093;-79
2022/09/27 13:04:45;;;;;;;0.77;0.63;;;;;;;;;;10521906;28;20438;-78
2022/09/27 13:10:13;;;;;;;0.98;0.50;;;;;;;;;;10469738;28;20040;-79
2022/09/27 13:15:26;;;;;;;0.50;0.30;;;;;;;;;;10498206;28;20042;-76
2022/09/27 13:20:43;;;;;;;0.77;0.50;;;;;;;;;;10525603;28;20067;-79
2022/09/27 13:26:23;;;;;;;1.15;0.50;;;;;;;;;;10506390;28;20412;-77
2022/09/27 13:32:11;;;;;;;0.65;0.50;;;;;;;;;;10524095;28;20036;-79
2022/09/27 13:37:45;;;;;;;0.70;0.30;;;;;;;;;;10505995;28;20091;-78
2022/09/27 13:43:16;;;;;;;1.17;0.68;;;;;;;;;;10519046;28;20047;-79
2022/09/27 13:48:39;;;;;;;1.00;0.40;;;;;;;;;;10512102;28;20040;-80
2022/09/27 13:53:55;;;;;;;1.58;0.60;;;;;;;;;;10497240;28;20040;-79
2022/09/27 13:59:01;;;;;;;0.55;0.55;;;;;;;;;;10502332;28;20047;-79
2022/09/27 14:04:27;;;;;;;1.38;0.52;;;;;;;;;;10521338;28;20098;-79
2022/09/27 14:09:34;;;;;;;0.65;0.40;;;;;;;;;;10482373;28;20036;-79
2022/09/27 14:15:07;;;;;;;0.85;0.60;;;;;;;;;;10494694;28;20036;-79
2022/09/27 14:20:31;;;;;;;0.70;0.40;;;;;;;;;;10494403;28;20036;-76
2022/09/27 14:25:39;;;;;;;0.70;0.33;;;;;;;;;;10474314;28;20054;-79
2022/09/27 14:30:45;;;;;;;1.58;0.65;;;;;;;;;;10516572;28;20048;-79
2022/09/27 14:41:46;;;;;;;1.33;0.35;;;;;;;;;;10454010;28;20071;-79
2022/09/27 14:47:08;;;;;;;1.48;0.50;;;;;;;;;;10473345;28;20098;-79
2022/09/27 14:52:20;;;;;;;2.08;0.50;;;;;;;;;;10515944;28;20075;-79
2022/09/27 14:57:23;;;;;;;1.17;0.50;;;;;;;;;;10494244;28;20044;-79
2022/09/27 15:02:27;;;;;;;1.20;0.52;;;;;;;;;;10487818;28;20040;-78
2022/09/27 15:07:33;;;;;;;0.55;0.40;;;;;;;;;;10500513;28;20032;-80
2022/09/27 15:12:36;;;;;;;2.17;0.70;;;;;;;;;;10483561;28;20052;-78
2022/09/27 15:17:43;;;;;;;1.65;0.55;;;;;;;;;;10506683;28;20051;-80
2022/09/27 15:22:48;;;;;;;1.73;0.80;;;;;;;;;;10500064;28;20064;-80
2022/09/27 15:28:01;;;;;;;0.30;0.30;;;;;;;;;;10454548;28;20075;-81
2022/09/27 15:33:21;;;;;;;1.27;0.40;;;;;;;;;;10497138;28;20109;-82
2022/09/27 15:38:33;;;;;;;1.55;0.60;;;;;;;;;;10502790;28;20040;-82
2022/09/27 15:43:39;;;;;;;0.88;0.50;;;;;;;;;;10479161;28;20681;-81
2022/09/27 15:49:36;;;;;;;1.27;0.60;;;;;;;;;;10514192;28;20069;-80
2022/09/27 15:54:41;;;;;;;1.38;0.60;;;;;;;;;;10323848;28;20038;-81
2022/09/27 15:59:44;;;;;;;0.75;0.60;;;;;;;;;;10456030;28;20666;-78
2022/09/27 16:04:48;;;;;;;1.67;0.88;;;;;;;;;;10477754;28;20044;-81
2022/09/27 16:09:54;;;;;;;0.60;0.50;;;;;;;;;;10474102;28;20045;-78
2022/09/27 16:14:57;;;;;;;;;;;;;;;;;;10496992;28;20475;-78
2022/09/27 16:20:01;;;;;;;0.80;0.60;;;;;;;;;;10499871;28;19921;-82
2022/09/27 16:25:10;;;;;;;;;;;;;;;;;;10488384;28;20599;-79
2022/09/27 16:30:14;;;;;;;0.50;0.50;;;;;;;;;;10492849;28;19946;-78
2022/09/27 16:35:20;;;;;;;1.80;0.80;;;;;;;;;;10498375;28;20097;-78
2022/09/27 16:40:28;;;;;;;3.50;1.43;;;;;;;;;;10485556;28;20082;-79
2022/09/27 16:45:35;;;;;;;1.70;1.27;;;;;;;;;;10488195;28;20048;-78
2022/09/27 16:56:01;;;;;;;1.23;0.80;;;;;;;;;;10490250;28;19927;-80
2022/09/27 17:01:06;;;;;;;0.93;0.60;;;;;;;;;;10513846;28;20036;-79
2022/09/27 17:06:09;;;;;;;2.10;0.65;;;;;;;;;;10491332;28;20416;-78
2022/09/27 17:11:15;;;;;;;2.35;0.82;;;;;;;;;;10511086;28;20161;-79
2022/09/27 17:16:19;;;;;;;1.48;0.57;;;;;;;;;;10489616;28;20040;-79
2022/09/27 17:21:22;;;;;;;0.85;0.70;;;;;;;;;;10478299;28;20648;-80
2022/09/27 17:26:29;;;;;;;0.80;0.50;;;;;;;;;;10480800;28;20477;-79
2022/09/27 17:31:33;;;;;;;1.10;0.65;;;;;;;;;;10490446;28;20409;-78
2022/09/27 17:36:38;;;;;;;1.30;0.70;;;;;;;;;;10507485;28;20067;-79
2022/09/27 17:41:42;;;;;;;1.38;1.00;;;;;;;;;;10513918;28;20058;-79
2022/09/27 17:50:23;;;;;;;0.98;0.70;;;;;;;;;;10482626;28;20091;-80
2022/09/27 17:52:10;;;;;;;1.52;0.60;;;;;;;;;;10491244;28;20046;-79
2022/09/27 17:57:15;;;;;;;1.02;0.63;;;;;;;;;;10486541;28;20044;-80
2022/09/27 18:02:19;;;;;;;0.60;0.60;;;;;;;;;;10506741;28;20044;-78
2022/09/27 18:07:22;;;;;;;0.73;0.50;;;;;;;;;;10522417;28;20040;-80
2022/09/27 18:12:30;;;;;;;0.80;0.70;;;;;;;;;;10522289;28;20036;-83
2022/09/27 18:17:35;;;;;;;2.00;0.80;;;;;;;;;;10503284;28;20539;-78
2022/09/27 18:22:39;;;;;;;3.50;2.00;;;;;;;;;;10486236;28;20660;-78
2022/09/27 18:27:45;;;;;;;5.22;1.58;;;;;;;;;;10508293;28;20119;-78
2022/09/27 18:32:49;;;;;;;1.37;0.80;;;;;;;;;;10485214;28;20048;-79
2022/09/27 18:37:53;;;;;;;3.03;0.60;;;;;;;;;;10487376;28;20067;-79
2022/09/27 18:42:57;;;;;;;1.20;0.52;;;;;;;;;;10435891;28;20638;-80
2022/09/27 18:48:01;;;;;;;0.70;0.55;;;;;;;;;;10470767;28;20048;-79
2022/09/27 18:53:04;;;;;;;0.68;0.40;;;;;;;;;;10460183;28;20040;-78
2022/09/27 18:58:14;;;;;;;1.03;0.60;;;;;;;;;;10454911;28;20458;-82
2022/09/27 19:03:18;;;;;;;0.75;0.47;;;;;;;;;;10454851;28;20036;-79
2022/09/27 19:08:21;;;;;;;2.25;0.88;;;;;;;;;;10446139;28;20048;-79
2022/09/27 19:13:26;;;;;;;0.68;0.50;;;;;;;;;;10442379;28;20049;-80
2022/09/27 19:18:31;;;;;;;;;;;;;;;;;;10440925;28;20066;-80
2022/09/27 19:23:35;;;;;;;0.50;0.30;;;;;;;;;;10469109;28;19921;-80
2022/09/27 19:28:42;;;;;;;1.30;0.60;;;;;;;;;;10477292;28;20078;-80
2022/09/27 19:33:46;;;;;;;3.97;1.30;;;;;;;;;;10463270;28;20115;-80
2022/09/27 19:38:50;;;;;;;2.97;1.10;;;;;;;;;;10466038;28;20103;-80
2022/09/27 19:43:57;;;;;;;1.10;0.63;;;;;;;;;;10471890;28;20490;-80
2022/09/27 19:49:01;;;;;;;0.77;0.50;;;;;;;;;;10452342;28;20040;-79
2022/09/27 19:54:04;;;;;;;0.80;0.55;;;;;;;;;;10468319;28;20040;-79
2022/09/27 19:59:10;;;;;;;0.85;0.40;;;;;;;;;;10453455;28;20124;-80
2022/09/27 20:04:13;;;;;;;1.33;0.90;;;;;;;;;;10457276;28;20036;-79
2022/09/27 20:09:17;;;;;;;2.35;0.73;;;;;;;;;;10476318;28;20083;-79
2022/09/27 20:14:21;;;;;;;0.80;0.68;;;;;;;;;;10464470;28;20043;-78
2022/09/27 20:19:25;;;;;;;2.15;0.70;;;;;;;;;;10459013;28;20059;-78
2022/09/27 20:24:28;;;;;;;0.70;0.43;;;;;;;;;;10475520;28;20040;-77
2022/09/27 20:29:33;;;;;;;1.17;0.73;;;;;;;;;;10479016;28;20048;-77
2022/09/27 20:34:36;;;;;;;0.40;0.40;;;;;;;;;;10473143;28;20049;-77
2022/09/27 20:39:39;;;;;;;0.60;0.40;;;;;;;;;;10469515;28;20050;-78
2022/09/27 20:44:44;;;;;;;0.55;0.30;;;;;;;;;;10488528;28;20325;-78
2022/09/27 20:49:48;;;;;;;0.47;0.30;;;;;;;;;;10506984;28;20054;-77
2022/09/27 20:54:51;;;;;;;0.88;0.40;;;;;;;;;;10514477;28;20127;-78
2022/09/27 20:59:55;;;;;;;1.10;0.63;;;;;;;;;;10473426;28;20044;-77
2022/09/27 21:04:59;;;;;;;0.45;0.30;;;;;;;;;;10468208;28;20039;-77
2022/09/27 21:10:04;;;;;;;1.80;1.05;;;;;;;;;;10487045;28;20036;-77
2022/09/27 21:15:11;;;;;;;6.38;2.28;;;;;;;;;;10485114;28;20044;-78
2022/09/27 21:20:14;;;;;;;2.92;1.25;;;;;;;;;;10511585;28;20047;-78
2022/09/27 21:25:18;;;;;;;1.52;0.80;;;;;;;;;;10502382;28;20036;-77
2022/09/27 21:30:23;;;;;;;0.85;0.40;;;;;;;;;;10520933;28;20031;-79
2022/09/27 21:35:26;;;;;;;1.05;0.40;;;;;;;;;;10507386;28;20045;-78
2022/09/27 21:40:32;;;;;;;0.60;0.40;;;;;;;;;;10490396;28;20072;-78
2022/09/27 21:45:37;;;;;;;0.30;0.30;;;;;;;;;;10456819;28;20044;-80
2022/09/27 21:50:40;;;;;;;1.83;0.45;;;;;;;;;;10489413;28;20564;-78
2022/09/27 21:55:54;;;;;;;0.38;0.32;;;;;;;;;;10481206;28;20047;-77
2022/09/27 22:00:59;;;;;;;2.97;0.50;;;;;;;;;;10480200;28;20048;-78
2022/09/27 22:06:02;;;;;;;1.40;0.55;;;;;;;;;;10478081;28;20080;-79
2022/09/27 22:11:06;;;;;;;0.73;0.47;;;;;;;;;;10523727;28;20407;-78
2022/09/27 22:16:13;;;;;;;0.77;0.50;;;;;;;;;;10486539;28;20035;-76
2022/09/27 22:21:18;;;;;;;1.13;0.47;;;;;;;;;;10500413;28;20456;-79
2022/09/27 22:26:24;;;;;;;0.90;0.55;;;;;;;;;;10494235;28;20063;-79
2022/09/27 22:31:29;;;;;;;0.60;0.50;;;;;;;;;;10493161;28;20045;-78
2022/09/27 22:36:33;;;;;;;1.50;0.43;;;;;;;;;;10480882;28;20044;-77
2022/09/27 22:41:37;;;;;;;0.80;0.40;;;;;;;;;;10489931;28;20056;-78
2022/09/27 22:46:41;;;;;;;0.52;0.35;;;;;;;;;;10480754;28;20054;-76
2022/09/27 22:51:45;;;;;;;0.65;0.50;;;;;;;;;;10492956;28;20051;-78
2022/09/27 22:56:55;;;;;;;0.60;0.40;;;;;;;;;;10524879;28;20472;-77
2022/09/27 23:02:00;;;;;;;0.35;0.32;;;;;;;;;;10498436;28;20071;-78
2022/09/27 23:07:04;;;;;;;0.47;0.43;;;;;;;;;;10469852;28;20040;-77
2022/09/27 23:12:07;;;;;;;0.90;0.77;;;;;;;;;;10501623;28;20380;-78
2022/09/27 23:17:14;;;;;;;1.08;0.40;;;;;;;;;;10484820;28;20044;-77
2022/09/27 23:22:18;;;;;;;0.63;0.60;;;;;;;;;;10451450;28;20143;-79
2022/09/27 23:32:44;;;;;;;1.40;0.45;;;;;;;;;;10487574;28;20455;-80
2022/09/27 23:37:48;;;;;;;0.32;0.32;;;;;;;;;;10478335;28;20052;-78
2022/09/27 23:42:52;;;;;;;0.70;0.60;;;;;;;;;;10497225;28;20101;-79
2022/09/27 23:47:57;;;;;;;0.75;0.50;;;;;;;;;;10479610;28;20070;-78
2022/09/27 23:53:00;;;;;;;0.43;0.43;;;;;;;;;;10485939;28;20123;-79
2022/09/27 23:58:06;;;;;;;1.20;0.68;;;;;;;;;;10484051;28;20032;-79
